Terminal Aerodrome Forecast
Issued by NWS Knoxville/Tri Cities, TN

Home | Current Version | Previous Version | Text Only | Print | Product List | Glossary On
Versions: 1 2 3 4 5 6 7 8 9 10 11 12 13 14 15 16 17 18 19 20 21 22 23 24 25 26 27 28 29 30 31 32 33 34 35 36 37 38 39 40 41 42 43 44 45 46 47 48 49 50
000
FTUS44 KMRX 032330
TAFTRI
TAF
KTRI 032330Z 0400/0424 24008KT P6SM VCSH SCT025 BKN040
      TEMPO 0400/0404 2SM SHRA BR BKN018
     FM040400 25007KT 5SM BR VCSH SCT025 BKN050
     FM040600 24005KT 6SM -SHRA BR SCT010 OVC020
      TEMPO 0408/0412 25005KT 2SM SHRA BR OVC008
     FM041200 24007KT P6SM VCSH BKN015
     FM041900 25010KT P6SM SCT025 BKN080=

USA.gov is the U.S. government's official web portal to all federal, state and local government web resources and services.